Time;durP1;ratioP1;P1;durP2;ratioP2;P2;SDS_P1;SDS_P2;PMS_P1;PMS_P2;Temp;Humidity;BMP_temperature;BMP_pressure;BME280_temperature;BME280_humidity;BME280_pressure;Samples;Min_cycle;Max_cycle;Signal;HPM_P1;HPM_P2
2021/06/22 00:00:54;;;;;;;8.68;1.98;;;;;;;;;;5052609;28;20025;-52
2021/06/22 00:03:21;;;;;;;7.63;1.58;;;;;;;;;;5052579;28;20025;-53
2021/06/22 00:05:47;;;;;;;2.03;1.30;;;;;;;;;;5052538;28;20037;-53
2021/06/22 00:08:14;;;;;;;4.65;2.33;;;;;;;;;;5052426;28;20032;-53
2021/06/22 00:10:41;;;;;;;5.43;1.75;;;;;;;;;;5052415;28;20058;-52
2021/06/22 00:13:08;;;;;;;4.00;1.53;;;;;;;;;;5052528;28;20494;-53
2021/06/22 00:15:35;;;;;;;3.37;1.67;;;;;;;;;;5052430;28;20116;-53
2021/06/22 00:18:01;;;;;;;3.93;1.80;;;;;;;;;;5052277;28;20525;-53
2021/06/22 00:20:28;;;;;;;3.77;1.63;;;;;;;;;;5056305;28;20040;-53
2021/06/22 00:22:55;;;;;;;3.67;1.67;;;;;;;;;;5056388;28;20503;-53
2021/06/22 00:25:23;;;;;;;3.77;1.70;;;;;;;;;;5056349;28;20500;-53
2021/06/22 00:27:50;;;;;;;7.00;2.10;;;;;;;;;;5056314;28;20436;-53
2021/06/22 00:30:17;;;;;;;6.97;1.70;;;;;;;;;;5056593;28;20048;-53
2021/06/22 00:32:44;;;;;;;3.00;1.60;;;;;;;;;;5056179;28;20029;-53
2021/06/22 00:35:12;;;;;;;3.73;1.40;;;;;;;;;;5056105;28;20028;-53
2021/06/22 00:37:39;;;;;;;3.53;1.40;;;;;;;;;;5055952;28;20506;-53
2021/06/22 00:40:07;;;;;;;4.63;1.77;;;;;;;;;;5056159;28;20036;-53
2021/06/22 00:42:33;;;;;;;3.20;1.40;;;;;;;;;;5056026;28;20463;-53
2021/06/22 00:45:00;;;;;;;3.63;1.73;;;;;;;;;;5056047;28;20032;-53
2021/06/22 00:47:28;;;;;;;2.73;1.57;;;;;;;;;;5055857;28;20025;-53
2021/06/22 00:49:55;;;;;;;3.10;1.60;;;;;;;;;;5055970;28;20029;-53
2021/06/22 00:52:26;;;;;;;3.33;1.60;;;;;;;;;;5055848;28;20025;-53
2021/06/22 00:54:54;;;;;;;5.63;1.60;;;;;;;;;;5055861;28;20025;-53
2021/06/22 00:57:21;;;;;;;2.53;1.50;;;;;;;;;;5055608;28;20037;-53
2021/06/22 00:59:48;;;;;;;6.07;1.70;;;;;;;;;;5055660;28;20032;-52
2021/06/22 01:02:16;;;;;;;2.77;1.60;;;;;;;;;;5055721;28;20401;-52
2021/06/22 01:04:42;;;;;;;4.97;1.20;;;;;;;;;;5055625;28;20227;-53
2021/06/22 01:07:12;;;;;;;11.43;2.10;;;;;;;;;;5055451;28;20122;-53
2021/06/22 01:09:39;;;;;;;3.37;1.70;;;;;;;;;;5055519;28;20021;-52
2021/06/22 01:12:06;;;;;;;3.97;1.20;;;;;;;;;;5055561;28;20060;-52
2021/06/22 01:14:33;;;;;;;4.17;1.57;;;;;;;;;;5055309;28;20486;-53
2021/06/22 01:17:00;;;;;;;4.73;1.50;;;;;;;;;;5055272;28;20423;-53
2021/06/22 01:19:29;;;;;;;3.73;1.60;;;;;;;;;;5055211;28;20369;-53
2021/06/22 01:21:56;;;;;;;3.80;1.63;;;;;;;;;;5055262;28;20056;-52
2021/06/22 01:24:23;;;;;;;7.77;1.50;;;;;;;;;;5055245;28;20033;-52
2021/06/22 01:26:51;;;;;;;5.53;1.37;;;;;;;;;;5055151;28;20103;-53
2021/06/22 01:29:19;;;;;;;6.17;1.43;;;;;;;;;;5055017;28;20017;-52
2021/06/22 01:31:46;;;;;;;6.43;1.67;;;;;;;;;;5054423;28;20025;-53
2021/06/22 01:34:13;;;;;;;3.10;1.43;;;;;;;;;;5055319;28;20045;-53
2021/06/22 01:36:41;;;;;;;3.90;1.57;;;;;;;;;;5055138;28;20081;-53
2021/06/22 01:39:12;;;;;;;4.83;1.90;;;;;;;;;;5054756;28;20078;-53
2021/06/22 01:41:39;;;;;;;3.83;1.57;;;;;;;;;;5055066;28;20017;-53
2021/06/22 01:44:06;;;;;;;4.30;1.77;;;;;;;;;;5054993;28;20021;-53
2021/06/22 01:46:33;;;;;;;3.13;1.50;;;;;;;;;;5054796;28;20025;-52
2021/06/22 01:49:00;;;;;;;5.60;1.57;;;;;;;;;;5054814;28;20029;-52
2021/06/22 01:51:27;;;;;;;5.13;1.70;;;;;;;;;;5054747;28;20040;-53
2021/06/22 01:53:54;;;;;;;4.60;2.17;;;;;;;;;;5054809;28;20559;-52
2021/06/22 01:56:22;;;;;;;3.03;1.50;;;;;;;;;;5054616;28;20043;-53
2021/06/22 01:58:49;;;;;;;3.67;1.57;;;;;;;;;;5054435;28;20075;-52
2021/06/22 02:01:16;;;;;;;2.73;1.73;;;;;;;;;;5054471;28;20029;-53
2021/06/22 02:03:42;;;;;;;4.23;1.80;;;;;;;;;;5054479;28;20057;-53
2021/06/22 02:06:09;;;;;;;12.33;2.37;;;;;;;;;;5054440;28;20407;-53
2021/06/22 02:08:36;;;;;;;3.77;1.50;;;;;;;;;;5054375;28;20103;-52
2021/06/22 02:11:03;;;;;;;4.60;1.90;;;;;;;;;;5054487;28;20025;-53
2021/06/22 02:13:30;;;;;;;4.90;1.60;;;;;;;;;;5054347;28;20029;-53
2021/06/22 02:15:57;;;;;;;4.63;1.87;;;;;;;;;;5054399;28;20029;-53
2021/06/22 02:18:27;;;;;;;4.30;2.00;;;;;;;;;;5054148;28;20043;-53
2021/06/22 02:20:54;;;;;;;8.40;2.43;;;;;;;;;;5054086;28;20021;-52
2021/06/22 02:23:21;;;;;;;3.90;2.10;;;;;;;;;;5053809;28;20024;-52
2021/06/22 02:25:48;;;;;;;3.90;2.20;;;;;;;;;;5036079;28;20029;-52
2021/06/22 02:28:22;;;;;;;4.20;1.97;;;;;;;;;;5054075;28;20049;-52
2021/06/22 02:30:49;;;;;;;4.00;1.87;;;;;;;;;;5054083;28;20040;-53
2021/06/22 02:33:16;;;;;;;3.57;1.63;;;;;;;;;;5054053;28;20029;-52
2021/06/22 02:35:43;;;;;;;11.27;1.90;;;;;;;;;;5054040;28;20540;-52
2021/06/22 02:38:10;;;;;;;6.20;2.00;;;;;;;;;;5053578;28;20060;-53
2021/06/22 02:40:37;;;;;;;3.60;1.70;;;;;;;;;;5053886;28;20495;-52
2021/06/22 02:43:04;;;;;;;5.17;1.90;;;;;;;;;;5053338;28;20025;-52
2021/06/22 02:45:31;;;;;;;2.93;1.87;;;;;;;;;;5053795;28;20025;-52
2021/06/22 02:47:58;;;;;;;4.50;1.60;;;;;;;;;;5053617;28;20118;-52
2021/06/22 02:50:24;;;;;;;4.93;1.30;;;;;;;;;;5053659;28;20043;-53
2021/06/22 02:52:58;;;;;;;2.80;1.60;;;;;;;;;;5053686;28;20035;-52
2021/06/22 02:55:25;;;;;;;5.03;1.73;;;;;;;;;;5053602;28;20020;-53
2021/06/22 02:57:56;;;;;;;3.67;1.47;;;;;;;;;;5053253;28;20028;-52
2021/06/22 03:00:24;;;;;;;5.23;1.80;;;;;;;;;;5053438;28;20431;-52
2021/06/22 03:02:51;;;;;;;6.03;2.10;;;;;;;;;;5053356;28;20515;-52
2021/06/22 03:05:18;;;;;;;4.67;2.10;;;;;;;;;;5053368;28;20060;-52
2021/06/22 03:07:45;;;;;;;4.63;2.30;;;;;;;;;;5053219;28;20108;-52
2021/06/22 03:10:13;;;;;;;4.47;1.50;;;;;;;;;;5053331;28;20032;-52
2021/06/22 03:12:40;;;;;;;2.50;1.47;;;;;;;;;;5053183;28;20021;-52
2021/06/22 03:15:08;;;;;;;3.47;1.57;;;;;;;;;;5053291;28;20456;-52
2021/06/22 03:17:35;;;;;;;3.20;1.63;;;;;;;;;;5053733;28;20025;-52
2021/06/22 03:20:03;;;;;;;5.97;1.83;;;;;;;;;;5035186;28;20365;-52
2021/06/22 03:22:30;;;;;;;3.73;1.60;;;;;;;;;;5053109;28;20025;-52
2021/06/22 03:24:57;;;;;;;4.73;1.60;;;;;;;;;;5052983;28;20043;-52
2021/06/22 03:27:23;;;;;;;6.53;1.63;;;;;;;;;;5052995;28;20033;-52
2021/06/22 03:29:50;;;;;;;2.07;1.13;;;;;;;;;;5052776;28;20048;-52
2021/06/22 03:32:34;;;;;;;2.53;1.33;;;;;;;;;;5052721;28;20120;-52
2021/06/22 03:35:08;;;;;;;7.20;1.67;;;;;;;;;;5051450;28;20029;-52
2021/06/22 03:37:48;;;;;;;2.42;1.40;;;;;;;;;;5052452;28;20060;-52
2021/06/22 03:40:17;;;;;;;3.27;1.30;;;;;;;;;;5052311;28;20459;-52
2021/06/22 03:42:46;;;;;;;6.07;1.40;;;;;;;;;;5052526;28;20047;-52
2021/06/22 03:45:12;;;;;;;3.00;1.20;;;;;;;;;;5052764;28;20082;-52
2021/06/22 03:47:40;;;;;;;4.80;1.70;;;;;;;;;;5052820;28;20043;-52
2021/06/22 03:50:08;;;;;;;3.60;1.40;;;;;;;;;;5052534;28;20055;-52
2021/06/22 03:52:35;;;;;;;4.53;1.50;;;;;;;;;;5052304;28;20087;-52
2021/06/22 03:55:25;;;;;;;3.60;1.53;;;;;;;;;;5051944;28;20439;-52
2021/06/22 03:57:49;;;;;;;5.83;1.77;;;;;;;;;;5052308;28;20033;-52
2021/06/22 04:00:16;;;;;;;2.80;1.27;;;;;;;;;;5052587;28;20573;-52
2021/06/22 04:02:42;;;;;;;5.17;1.87;;;;;;;;;;5052613;28;20029;-52
2021/06/22 04:05:09;;;;;;;7.90;1.67;;;;;;;;;;5052610;28;20035;-52
2021/06/22 04:07:36;;;;;;;4.53;1.53;;;;;;;;;;5052533;28;20037;-52
2021/06/22 04:10:04;;;;;;;3.30;1.27;;;;;;;;;;5052391;28;20052;-52
2021/06/22 04:12:30;;;;;;;3.83;1.37;;;;;;;;;;5052434;28;20365;-52
2021/06/22 04:14:57;;;;;;;6.70;1.60;;;;;;;;;;5052428;28;20059;-52
2021/06/22 04:17:24;;;;;;;5.83;1.93;;;;;;;;;;5052503;28;20021;-52
2021/06/22 04:19:51;;;;;;;5.57;1.50;;;;;;;;;;5052265;28;20203;-52
2021/06/22 04:22:17;;;;;;;6.93;1.53;;;;;;;;;;5052473;28;20029;-52
2021/06/22 04:24:44;;;;;;;4.87;2.27;;;;;;;;;;5052346;28;20040;-52
2021/06/22 04:27:12;;;;;;;7.03;1.47;;;;;;;;;;5052260;28;20029;-52
2021/06/22 04:29:38;;;;;;;3.30;1.77;;;;;;;;;;5052412;28;20068;-52
2021/06/22 04:32:05;;;;;;;6.70;1.60;;;;;;;;;;5052302;28;20176;-52
2021/06/22 04:34:32;;;;;;;3.37;1.60;;;;;;;;;;5052232;28;20488;-52
2021/06/22 04:36:59;;;;;;;3.10;1.50;;;;;;;;;;5052160;28;20053;-52
2021/06/22 04:39:26;;;;;;;4.80;1.50;;;;;;;;;;5052057;28;20538;-53
2021/06/22 04:41:53;;;;;;;1.60;1.03;;;;;;;;;;5052296;28;20022;-52
2021/06/22 04:44:19;;;;;;;5.57;1.60;;;;;;;;;;5052235;28;20044;-52
2021/06/22 04:46:46;;;;;;;3.33;1.80;;;;;;;;;;5052114;28;20100;-52
2021/06/22 04:49:13;;;;;;;3.63;1.60;;;;;;;;;;5052219;28;20284;-52
2021/06/22 04:51:40;;;;;;;3.83;1.63;;;;;;;;;;5052018;28;20020;-52
2021/06/22 04:54:09;;;;;;;3.67;1.60;;;;;;;;;;5052020;28;20033;-52
2021/06/22 04:56:36;;;;;;;4.03;1.70;;;;;;;;;;5052288;28;20029;-52
2021/06/22 04:59:03;;;;;;;3.87;1.67;;;;;;;;;;5051950;28;20041;-52
2021/06/22 05:01:30;;;;;;;2.23;1.20;;;;;;;;;;5052092;28;20060;-52
2021/06/22 05:03:57;;;;;;;14.23;2.10;;;;;;;;;;5052107;28;20029;-51
2021/06/22 05:06:24;;;;;;;3.90;2.00;;;;;;;;;;5055435;28;20096;-51
2021/06/22 05:08:51;;;;;;;3.13;1.20;;;;;;;;;;5055549;28;20033;-52
2021/06/22 05:11:17;;;;;;;4.13;1.40;;;;;;;;;;5055520;28;20109;-52
2021/06/22 05:13:44;;;;;;;4.87;1.70;;;;;;;;;;5055483;28;20056;-52
2021/06/22 05:16:11;;;;;;;3.77;1.47;;;;;;;;;;5055370;28;20090;-52
2021/06/22 05:18:38;;;;;;;3.87;1.80;;;;;;;;;;5055285;28;20052;-52
2021/06/22 05:21:05;;;;;;;4.17;1.10;;;;;;;;;;5055265;28;20531;-52
2021/06/22 05:23:32;;;;;;;5.37;2.00;;;;;;;;;;5055238;28;20381;-52
2021/06/22 05:25:59;;;;;;;6.67;2.03;;;;;;;;;;5055264;28;20057;-52
2021/06/22 05:28:25;;;;;;;4.57;1.70;;;;;;;;;;5055242;28;20039;-52
2021/06/22 05:30:52;;;;;;;3.10;1.67;;;;;;;;;;5055118;28;20036;-52
2021/06/22 05:33:19;;;;;;;2.43;1.30;;;;;;;;;;5055135;28;20027;-53
2021/06/22 05:35:46;;;;;;;3.57;1.57;;;;;;;;;;5054983;28;20476;-52
2021/06/22 05:38:13;;;;;;;7.60;2.00;;;;;;;;;;5054628;28;20021;-53
2021/06/22 05:40:39;;;;;;;4.47;1.80;;;;;;;;;;5055085;28;20025;-53
2021/06/22 05:43:06;;;;;;;4.30;1.50;;;;;;;;;;5055068;28;20104;-52
2021/06/22 05:45:33;;;;;;;3.87;1.57;;;;;;;;;;5055036;28;20032;-52
2021/06/22 05:48:00;;;;;;;5.10;1.83;;;;;;;;;;5054868;28;20029;-53
2021/06/22 05:50:27;;;;;;;2.03;1.33;;;;;;;;;;5054869;28;20388;-52
2021/06/22 05:52:54;;;;;;;4.10;1.67;;;;;;;;;;5054844;28;20025;-53
2021/06/22 05:55:21;;;;;;;2.50;1.43;;;;;;;;;;5054676;28;20036;-52
2021/06/22 05:57:49;;;;;;;3.77;1.83;;;;;;;;;;5054654;28;20017;-52
2021/06/22 06:00:16;;;;;;;8.50;1.40;;;;;;;;;;5054599;28;20032;-52
2021/06/22 06:02:43;;;;;;;4.67;1.50;;;;;;;;;;5054606;28;20526;-52
2021/06/22 06:05:11;;;;;;;3.87;1.70;;;;;;;;;;5054807;28;20032;-52
2021/06/22 06:07:38;;;;;;;5.67;1.80;;;;;;;;;;5054351;28;20599;-52
2021/06/22 06:10:05;;;;;;;9.23;1.70;;;;;;;;;;5054478;28;20024;-52
2021/06/22 06:12:32;;;;;;;5.87;1.40;;;;;;;;;;5054338;28;20067;-52
2021/06/22 06:14:59;;;;;;;6.80;1.73;;;;;;;;;;5054318;28;20028;-52
2021/06/22 06:17:26;;;;;;;2.97;1.30;;;;;;;;;;5053496;28;20104;-52
2021/06/22 06:19:52;;;;;;;5.20;1.40;;;;;;;;;;5054140;28;20039;-52
2021/06/22 06:22:20;;;;;;;6.80;1.57;;;;;;;;;;5054106;28;20025;-52
2021/06/22 06:24:46;;;;;;;4.30;1.90;;;;;;;;;;5054134;28;20033;-53
2021/06/22 06:27:18;;;;;;;9.17;1.80;;;;;;;;;;5054114;28;20475;-52
2021/06/22 06:29:54;;;;;;;3.33;1.60;;;;;;;;;;5054110;28;20368;-52
2021/06/22 06:32:21;;;;;;;8.93;1.77;;;;;;;;;;5053995;28;20021;-52
2021/06/22 06:34:48;;;;;;;7.17;1.70;;;;;;;;;;5053899;28;20037;-52
2021/06/22 06:37:14;;;;;;;3.97;1.63;;;;;;;;;;5053747;28;20051;-52
2021/06/22 06:39:42;;;;;;;3.60;1.73;;;;;;;;;;5019766;28;20104;-52
2021/06/22 06:42:09;;;;;;;3.20;1.73;;;;;;;;;;5014146;28;20080;-52
2021/06/22 06:44:36;;;;;;;5.30;2.23;;;;;;;;;;5014113;28;20036;-52
2021/06/22 06:47:04;;;;;;;4.43;1.20;;;;;;;;;;5013922;28;20080;-52
2021/06/22 06:49:31;;;;;;;6.63;1.90;;;;;;;;;;5014066;28;20054;-52
2021/06/22 06:51:57;;;;;;;4.37;1.80;;;;;;;;;;5014276;28;20084;-52
2021/06/22 06:54:24;;;;;;;7.37;1.50;;;;;;;;;;5013913;28;20026;-52
2021/06/22 06:56:51;;;;;;;5.30;2.00;;;;;;;;;;5013749;28;20029;-52
2021/06/22 06:59:18;;;;;;;5.07;1.73;;;;;;;;;;5014325;28;20030;-52
2021/06/22 07:01:44;;;;;;;4.23;2.23;;;;;;;;;;5013820;28;20053;-52
2021/06/22 07:04:11;;;;;;;5.80;1.67;;;;;;;;;;5013635;28;20053;-52
2021/06/22 07:06:38;;;;;;;4.90;1.83;;;;;;;;;;5013663;28;20080;-52
2021/06/22 07:09:05;;;;;;;3.50;1.57;;;;;;;;;;4996118;28;20057;-52
2021/06/22 07:11:32;;;;;;;6.27;1.90;;;;;;;;;;5013676;28;20025;-52
2021/06/22 07:13:59;;;;;;;4.10;1.70;;;;;;;;;;5013474;28;20512;-52
2021/06/22 07:16:26;;;;;;;5.73;1.60;;;;;;;;;;5013459;28;20503;-52
2021/06/22 07:18:53;;;;;;;6.40;2.00;;;;;;;;;;5013454;28;20033;-52
2021/06/22 07:21:19;;;;;;;5.13;1.87;;;;;;;;;;5013368;28;20146;-52
2021/06/22 07:23:47;;;;;;;4.17;2.00;;;;;;;;;;5013422;28;20366;-52
2021/06/22 07:26:14;;;;;;;6.67;2.07;;;;;;;;;;5013403;28;20021;-52
2021/06/22 07:28:41;;;;;;;2.50;1.47;;;;;;;;;;5013218;28;20473;-52
2021/06/22 07:31:07;;;;;;;4.90;1.70;;;;;;;;;;5013262;28;20044;-52
2021/06/22 07:33:35;;;;;;;6.03;1.80;;;;;;;;;;5013361;28;20028;-52
2021/06/22 07:36:01;;;;;;;5.97;1.77;;;;;;;;;;5013157;28;20028;-52
2021/06/22 07:38:28;;;;;;;6.97;1.90;;;;;;;;;;5016500;28;20051;-53
2021/06/22 07:40:56;;;;;;;2.13;1.47;;;;;;;;;;5032827;28;20025;-52
2021/06/22 07:43:23;;;;;;;3.57;1.67;;;;;;;;;;5032831;28;20022;-52
2021/06/22 07:45:50;;;;;;;3.37;1.57;;;;;;;;;;5032695;28;20038;-52
2021/06/22 07:48:17;;;;;;;1.93;1.20;;;;;;;;;;5032668;28;20036;-52
2021/06/22 07:50:44;;;;;;;6.30;1.90;;;;;;;;;;5032803;28;20470;-52
2021/06/22 07:53:10;;;;;;;3.27;1.50;;;;;;;;;;5032847;28;20073;-52
2021/06/22 07:55:37;;;;;;;6.33;2.00;;;;;;;;;;5032674;28;20053;-52
2021/06/22 07:58:04;;;;;;;4.07;1.30;;;;;;;;;;5032941;28;20030;-52
2021/06/22 08:00:45;;;;;;;4.00;1.43;;;;;;;;;;5032755;28;20028;-52
2021/06/22 08:03:15;;;;;;;2.50;1.17;;;;;;;;;;5032774;28;20013;-52
2021/06/22 08:05:43;;;;;;;6.10;1.80;;;;;;;;;;5032512;28;20026;-52
2021/06/22 08:08:12;;;;;;;6.07;1.23;;;;;;;;;;5032578;28;20052;-52
2021/06/22 08:10:39;;;;;;;4.10;1.73;;;;;;;;;;5032618;28;20017;-52
2021/06/22 08:13:07;;;;;;;2.27;1.30;;;;;;;;;;5032547;28;20025;-52
2021/06/22 08:15:33;;;;;;;3.00;1.33;;;;;;;;;;5032459;28;20021;-52
2021/06/22 08:18:00;;;;;;;3.10;1.60;;;;;;;;;;5032412;28;20030;-52
2021/06/22 08:20:27;;;;;;;2.97;1.30;;;;;;;;;;5032543;28;20068;-52
2021/06/22 08:22:54;;;;;;;2.40;1.53;;;;;;;;;;5032420;28;20435;-52
2021/06/22 08:25:25;;;;;;;2.27;1.30;;;;;;;;;;5032395;28;20388;-52
2021/06/22 08:27:52;;;;;;;3.60;1.50;;;;;;;;;;5032421;28;20097;-52
2021/06/22 08:30:20;;;;;;;2.10;1.40;;;;;;;;;;5032299;28;20017;-52
2021/06/22 08:32:47;;;;;;;7.03;1.63;;;;;;;;;;5032440;28;20025;-52
2021/06/22 08:35:14;;;;;;;2.17;1.47;;;;;;;;;;5032446;28;20087;-52
2021/06/22 08:37:41;;;;;;;3.00;1.43;;;;;;;;;;5032289;28;20021;-52
2021/06/22 08:40:09;;;;;;;5.30;1.30;;;;;;;;;;5035193;28;20045;-52
2021/06/22 08:42:36;;;;;;;5.27;1.70;;;;;;;;;;5036221;28;20021;-52
2021/06/22 08:45:04;;;;;;;4.30;1.30;;;;;;;;;;5036128;28;20021;-51
2021/06/22 08:47:31;;;;;;;6.43;1.50;;;;;;;;;;5036043;28;20037;-52
2021/06/22 08:49:58;;;;;;;5.27;1.47;;;;;;;;;;5035925;28;20392;-52
2021/06/22 08:52:28;;;;;;;3.93;1.30;;;;;;;;;;5035903;28;20395;-52
2021/06/22 08:54:55;;;;;;;3.57;1.13;;;;;;;;;;5036010;28;20028;-52
2021/06/22 08:57:23;;;;;;;4.77;1.30;;;;;;;;;;5035753;28;20116;-52
2021/06/22 08:59:50;;;;;;;4.37;1.47;;;;;;;;;;5035701;28;20041;-53
2021/06/22 09:02:39;;;;;;;4.60;1.30;;;;;;;;;;5035951;28;20029;-52
2021/06/22 09:05:05;;;;;;;3.13;1.20;;;;;;;;;;5035338;28;20022;-52
2021/06/22 09:07:41;;;;;;;2.97;1.30;;;;;;;;;;5035540;28;20026;-53
2021/06/22 09:10:08;;;;;;;3.87;1.20;;;;;;;;;;5035712;28;20021;-52
2021/06/22 09:12:36;;;;;;;2.93;1.37;;;;;;;;;;5035523;28;20481;-52
2021/06/22 09:15:15;;;;;;;3.07;1.40;;;;;;;;;;5035627;28;20026;-52
2021/06/22 09:17:45;;;;;;;4.37;1.50;;;;;;;;;;5035716;28;20026;-52
2021/06/22 09:20:13;;;;;;;1.73;1.10;;;;;;;;;;5035548;28;20033;-52
2021/06/22 09:22:40;;;;;;;2.77;1.33;;;;;;;;;;5035416;28;20030;-52
2021/06/22 09:25:09;;;;;;;3.73;1.70;;;;;;;;;;5035361;28;20156;-52
2021/06/22 09:27:55;;;;;;;4.23;1.30;;;;;;;;;;5035413;28;20037;-52
2021/06/22 09:30:42;;;;;;;2.07;1.10;;;;;;;;;;5035575;28;20078;-53
2021/06/22 09:33:30;;;;;;;5.50;1.47;;;;;;;;;;5035089;28;20080;-52
2021/06/22 09:36:07;;;;;;;3.03;1.30;;;;;;;;;;5035208;28;20128;-52
2021/06/22 09:38:36;;;;;;;6.20;1.50;;;;;;;;;;5036358;28;20101;-53
2021/06/22 09:41:26;;;;;;;1.77;1.03;;;;;;;;;;5034937;28;20037;-52
2021/06/22 09:43:59;;;;;;;4.40;1.40;;;;;;;;;;5025105;28;20213;-52
2021/06/22 09:46:37;;;;;;;5.43;1.83;;;;;;;;;;5034830;28;20037;-52
2021/06/22 09:49:04;;;;;;;2.27;1.30;;;;;;;;;;5034705;28;20030;-52
2021/06/22 09:51:36;;;;;;;6.80;1.83;;;;;;;;;;5033882;28;20025;-52
2021/06/22 09:54:32;;;;;;;2.60;1.27;;;;;;;;;;5034667;28;20083;-52
2021/06/22 09:57:02;;;;;;;3.07;1.30;;;;;;;;;;5018368;28;20076;-52
2021/06/22 09:59:31;;;;;;;8.97;1.73;;;;;;;;;;5034713;28;20033;-52
2021/06/22 10:02:10;;;;;;;2.17;1.30;;;;;;;;;;5034768;28;20109;-53
2021/06/22 10:04:37;;;;;;;2.67;1.30;;;;;;;;;;5034711;28;20056;-52
2021/06/22 10:07:09;;;;;;;12.07;1.60;;;;;;;;;;5034660;28;20048;-52
2021/06/22 10:09:36;;;;;;;4.67;1.57;;;;;;;;;;5034364;28;20022;-52
2021/06/22 10:12:07;;;;;;;2.00;1.20;;;;;;;;;;5034430;28;20120;-52
2021/06/22 10:14:36;;;;;;;2.80;1.37;;;;;;;;;;5034421;28;20057;-52
2021/06/22 10:17:06;;;;;;;3.43;1.60;;;;;;;;;;5034208;28;20021;-52
2021/06/22 10:19:34;;;;;;;2.50;1.27;;;;;;;;;;5034149;28;20081;-52
2021/06/22 10:22:01;;;;;;;4.10;1.20;;;;;;;;;;5034532;28;20037;-52
2021/06/22 10:24:29;;;;;;;2.40;1.27;;;;;;;;;;5034288;28;20029;-52
2021/06/22 10:26:58;;;;;;;2.40;1.40;;;;;;;;;;5034372;28;20030;-52
2021/06/22 10:29:25;;;;;;;2.33;1.10;;;;;;;;;;5034211;28;20108;-52
2021/06/22 10:31:54;;;;;;;6.93;1.50;;;;;;;;;;5016367;28;20026;-52
2021/06/22 10:34:20;;;;;;;6.57;1.60;;;;;;;;;;5034092;28;20025;-52
2021/06/22 10:36:51;;;;;;;2.17;1.17;;;;;;;;;;5033848;28;20032;-52
2021/06/22 10:39:29;;;;;;;3.93;1.47;;;;;;;;;;5035130;28;20076;-52
2021/06/22 10:41:57;;;;;;;2.27;1.13;;;;;;;;;;5033886;28;20026;-52
2021/06/22 10:44:24;;;;;;;3.30;1.20;;;;;;;;;;5033779;28;20033;-52
2021/06/22 10:47:09;;;;;;;4.63;1.20;;;;;;;;;;5016023;28;20021;-52
2021/06/22 10:49:36;;;;;;;4.22;1.30;;;;;;;;;;5033761;28;20026;-52
2021/06/22 10:52:03;;;;;;;4.77;1.37;;;;;;;;;;5033614;28;20025;-52
2021/06/22 10:54:48;;;;;;;2.00;1.20;;;;;;;;;;5033532;28;20539;-52
2021/06/22 10:57:15;;;;;;;2.45;1.40;;;;;;;;;;5015817;28;20484;-52
2021/06/22 11:00:00;;;;;;;7.20;1.83;;;;;;;;;;5033538;28;20038;-52
2021/06/22 11:02:47;;;;;;;8.00;1.63;;;;;;;;;;5033122;28;20127;-52
2021/06/22 11:05:14;;;;;;;2.00;1.30;;;;;;;;;;5033446;28;20480;-52
2021/06/22 11:07:41;;;;;;;3.13;1.40;;;;;;;;;;5033462;28;20033;-52
2021/06/22 11:10:15;;;;;;;3.47;1.30;;;;;;;;;;5033578;28;20044;-52
2021/06/22 11:12:48;;;;;;;3.17;1.40;;;;;;;;;;5033301;28;20037;-52
2021/06/22 11:15:15;;;;;;;3.30;1.30;;;;;;;;;;5033365;28;20024;-52
2021/06/22 11:17:42;;;;;;;2.27;1.33;;;;;;;;;;5033214;28;20049;-52
2021/06/22 11:20:17;;;;;;;3.97;1.37;;;;;;;;;;5033147;28;20037;-52
2021/06/22 11:22:56;;;;;;;13.97;1.57;;;;;;;;;;5033128;28;20420;-52
2021/06/22 11:25:23;;;;;;;15.10;1.83;;;;;;;;;;5033076;28;20030;-52
2021/06/22 11:28:08;;;;;;;4.00;1.90;;;;;;;;;;5032894;28;20040;-52
2021/06/22 11:30:51;;;;;;;2.38;1.25;;;;;;;;;;5033185;28;20029;-52
2021/06/22 11:33:44;;;;;;;7.23;1.67;;;;;;;;;;5033102;28;20497;-52
2021/06/22 11:36:17;;;;;;;5.83;1.60;;;;;;;;;;5024657;28;20030;-52
2021/06/22 11:38:45;;;;;;;5.97;1.43;;;;;;;;;;5034235;28;20288;-53
2021/06/22 11:41:12;;;;;;;3.63;1.67;;;;;;;;;;5032970;28;20061;-52
2021/06/22 11:43:59;;;;;;;3.30;1.73;;;;;;;;;;5032842;28;20021;-52
2021/06/22 11:46:29;;;;;;;12.33;1.90;;;;;;;;;;5032734;28;20022;-52
2021/06/22 11:48:59;;;;;;;4.77;1.50;;;;;;;;;;5032765;28;20053;-52
2021/06/22 11:51:44;;;;;;;4.10;1.67;;;;;;;;;;5032786;28;20444;-52
2021/06/22 11:54:11;;;;;;;4.07;1.70;;;;;;;;;;5032777;28;20021;-52
2021/06/22 11:56:38;;;;;;;3.67;2.03;;;;;;;;;;5032572;28;20029;-52
2021/06/22 11:59:05;;;;;;;4.70;1.73;;;;;;;;;;5032511;28;20036;-52
2021/06/22 12:01:32;;;;;;;4.00;1.80;;;;;;;;;;5032645;28;20018;-52
2021/06/22 12:03:58;;;;;;;4.23;1.80;;;;;;;;;;5032735;28;20053;-52
2021/06/22 12:06:25;;;;;;;7.67;2.67;;;;;;;;;;5032633;28;20017;-52
2021/06/22 12:08:52;;;;;;;6.87;1.80;;;;;;;;;;5032636;28;20032;-52
2021/06/22 12:11:32;;;;;;;10.40;1.90;;;;;;;;;;5015082;28;20025;-52
2021/06/22 12:13:59;;;;;;;10.17;2.13;;;;;;;;;;5032602;28;20057;-52
2021/06/22 12:16:27;;;;;;;5.50;2.30;;;;;;;;;;5036542;28;20037;-52
2021/06/22 12:18:55;;;;;;;7.53;2.30;;;;;;;;;;5036487;28;20033;-52
2021/06/22 12:21:22;;;;;;;22.30;2.43;;;;;;;;;;5036494;28;20030;-53
2021/06/22 12:23:49;;;;;;;6.90;2.27;;;;;;;;;;5036378;28;20057;-52
2021/06/22 12:26:16;;;;;;;8.27;1.93;;;;;;;;;;5036387;28;20380;-52
2021/06/22 12:28:44;;;;;;;9.37;1.93;;;;;;;;;;5036398;28;20060;-52
2021/06/22 12:31:12;;;;;;;4.17;2.17;;;;;;;;;;5036347;28;20117;-52
2021/06/22 12:33:48;;;;;;;21.37;2.50;;;;;;;;;;5036547;28;20029;-52
2021/06/22 12:36:20;;;;;;;10.33;2.50;;;;;;;;;;5036118;28;20040;-52
2021/06/22 12:38:49;;;;;;;4.93;2.00;;;;;;;;;;5037551;28;20065;-51
2021/06/22 12:41:16;;;;;;;3.53;1.73;;;;;;;;;;5016685;28;20108;-52
2021/06/22 12:43:50;;;;;;;4.07;1.70;;;;;;;;;;5016246;28;20014;-52
2021/06/22 12:46:18;;;;;;;6.72;1.92;;;;;;;;;;5016129;28;20034;-51
2021/06/22 12:48:46;;;;;;;6.83;2.00;;;;;;;;;;5016090;28;20030;-52
2021/06/22 12:51:13;;;;;;;9.03;2.40;;;;;;;;;;5016234;28;20022;-52
2021/06/22 12:53:41;;;;;;;4.93;2.17;;;;;;;;;;5016236;28;20432;-52
2021/06/22 12:56:12;;;;;;;3.57;1.70;;;;;;;;;;5015988;28;20113;-52
2021/06/22 12:58:52;;;;;;;9.03;2.20;;;;;;;;;;5015935;28;20073;-52
2021/06/22 13:01:38;;;;;;;4.00;2.23;;;;;;;;;;5016031;28;20022;-52
2021/06/22 13:04:06;;;;;;;7.20;2.28;;;;;;;;;;5015902;28;20088;-52
2021/06/22 13:06:35;;;;;;;5.93;2.30;;;;;;;;;;5015919;28;20018;-52
2021/06/22 13:09:07;;;;;;;5.00;2.20;;;;;;;;;;5015807;28;20032;-52
2021/06/22 13:11:35;;;;;;;5.50;2.83;;;;;;;;;;5015746;28;20115;-52
2021/06/22 13:14:08;;;;;;;5.73;2.23;;;;;;;;;;5015725;28;20026;-52
2021/06/22 13:16:34;;;;;;;5.53;2.40;;;;;;;;;;5015755;28;20097;-52
2021/06/22 13:19:12;;;;;;;5.03;2.20;;;;;;;;;;5015524;28;20062;-52
2021/06/22 13:21:49;;;;;;;4.90;2.37;;;;;;;;;;5015590;28;20031;-52
2021/06/22 13:24:28;;;;;;;6.13;2.53;;;;;;;;;;5015718;28;20125;-52
2021/06/22 13:26:55;;;;;;;7.57;2.80;;;;;;;;;;5015322;28;20025;-52
2021/06/22 13:29:22;;;;;;;6.13;2.93;;;;;;;;;;5015512;28;20385;-52
2021/06/22 13:31:59;;;;;;;8.17;3.60;;;;;;;;;;5015268;28;20030;-52
2021/06/22 13:34:27;;;;;;;5.07;2.90;;;;;;;;;;5015321;28;20033;-52
2021/06/22 13:36:54;;;;;;;9.40;2.93;;;;;;;;;;5015256;28;20481;-52
2021/06/22 13:39:21;;;;;;;7.43;3.30;;;;;;;;;;5020591;28;20046;-52
2021/06/22 13:41:50;;;;;;;7.03;3.00;;;;;;;;;;5035183;28;20486;-52
2021/06/22 13:44:50;;;;;;;8.63;3.57;;;;;;;;;;5034984;28;20037;-52
2021/06/22 13:47:49;;;;;;;8.30;4.03;;;;;;;;;;5020469;28;20047;-52
2021/06/22 13:50:48;;;;;;;7.63;3.53;;;;;;;;;;5016853;28;20029;-52
2021/06/22 13:53:30;;;;;;;10.33;3.63;;;;;;;;;;5006293;28;20144;-52
2021/06/22 13:56:14;;;;;;;9.57;3.17;;;;;;;;;;5034858;28;20026;-52
2021/06/22 13:58:56;;;;;;;7.60;3.20;;;;;;;;;;5035069;28;20094;-52
2021/06/22 14:01:50;;;;;;;11.73;3.50;;;;;;;;;;5033670;28;20098;-52
2021/06/22 14:04:23;;;;;;;10.33;3.20;;;;;;;;;;5033693;28;20370;-52
2021/06/22 14:07:13;;;;;;;4.88;2.78;;;;;;;;;;5034559;28;20058;-52
2021/06/22 14:10:02;;;;;;;5.77;3.13;;;;;;;;;;5034628;28;20057;-52
2021/06/22 14:12:53;;;;;;;6.73;3.40;;;;;;;;;;5034159;28;20037;-52
2021/06/22 14:15:36;;;;;;;13.57;3.50;;;;;;;;;;5033435;28;20026;-53
2021/06/22 14:18:27;;;;;;;9.77;3.53;;;;;;;;;;5033868;28;20369;-53
2021/06/22 14:21:15;;;;;;;9.20;3.23;;;;;;;;;;5033752;28;20076;-53
2021/06/22 14:23:49;;;;;;;9.80;3.20;;;;;;;;;;5034159;28;20465;-52
2021/06/22 14:26:29;;;;;;;6.40;3.20;;;;;;;;;;5033899;28;20036;-53
2021/06/22 14:29:15;;;;;;;5.47;2.80;;;;;;;;;;5034151;28;20113;-53
2021/06/22 14:32:08;;;;;;;10.77;3.10;;;;;;;;;;5033766;28;20079;-53
2021/06/22 14:34:48;;;;;;;9.37;3.77;;;;;;;;;;5034005;28;20128;-53
2021/06/22 14:37:27;;;;;;;6.83;3.33;;;;;;;;;;5033011;28;20033;-53
2021/06/22 14:40:05;;;;;;;6.93;3.53;;;;;;;;;;5019461;28;20069;-53
2021/06/22 14:42:49;;;;;;;11.03;3.40;;;;;;;;;;5032876;28;20373;-53
2021/06/22 14:45:25;;;;;;;6.22;3.20;;;;;;;;;;5033909;28;20025;-53
2021/06/22 14:48:01;;;;;;;8.20;3.00;;;;;;;;;;5032746;28;20029;-53
2021/06/22 14:50:32;;;;;;;4.77;2.23;;;;;;;;;;5033367;28;20449;-53
2021/06/22 14:53:10;;;;;;;6.57;2.77;;;;;;;;;;5033686;28;20032;-53
2021/06/22 14:55:57;;;;;;;9.50;3.20;;;;;;;;;;5033287;28;20095;-53
2021/06/22 14:58:36;;;;;;;4.23;2.50;;;;;;;;;;5031512;28;20416;-53
2021/06/22 15:01:13;;;;;;;7.27;2.37;;;;;;;;;;5033243;28;20033;-53